createdAt,value
2023-03-21T00:00:39.823Z,100352.22
2023-03-21T00:03:06.294Z,100344.25
2023-03-21T00:05:32.811Z,100348.25
2023-03-21T00:08:02.197Z,100347.44
2023-03-21T00:10:40.288Z,100347.47
2023-03-21T00:13:11.197Z,100343.50
2023-03-21T00:15:44.229Z,100339.53
2023-03-21T00:18:18.539Z,100332.00
2023-03-21T00:20:46.068Z,100335.56
2023-03-21T00:23:13.503Z,100339.53
2023-03-21T00:25:40.906Z,100333.59
2023-03-21T00:28:08.855Z,100330.88
2023-03-21T00:30:35.420Z,100330.88
2023-03-21T00:33:08.943Z,100328.84
2023-03-21T00:35:58.399Z,100327.28
2023-03-21T00:38:29.754Z,100330.44
2023-03-21T00:41:02.006Z,100327.28
2023-03-21T00:43:32.132Z,100329.22
2023-03-21T00:45:58.776Z,100332.84
2023-03-21T00:48:26.252Z,100328.84
2023-03-21T00:50:53.669Z,100337.22
2023-03-21T00:53:21.049Z,100325.69
2023-03-21T00:55:47.520Z,100325.69
2023-03-21T00:58:13.998Z,100320.53
2023-03-21T01:00:41.485Z,100325.25
2023-03-21T01:03:21.488Z,100329.25
2023-03-21T01:05:50.835Z,100326.50
2023-03-21T01:08:25.422Z,100322.53
2023-03-21T01:10:55.500Z,100325.31
2023-03-21T01:13:22.966Z,100324.53
2023-03-21T01:15:49.381Z,100327.72
2023-03-21T01:18:15.867Z,100317.81
2023-03-21T01:20:43.255Z,100327.69
2023-03-21T01:23:09.743Z,100314.59
2023-03-21T01:25:36.310Z,100322.16
2023-03-21T01:28:02.819Z,100318.16
2023-03-21T01:33:25.128Z,100318.97
2023-03-21T01:36:00.362Z,100310.66
2023-03-21T01:38:37.538Z,100314.63
2023-03-21T01:41:08.596Z,100311.03
2023-03-21T01:49:18.963Z,100305.94
2023-03-21T01:51:46.429Z,100309.06
2023-03-21T01:54:12.861Z,100306.69
2023-03-21T01:56:40.240Z,100302.31
2023-03-21T01:59:06.733Z,100294.38
2023-03-21T02:01:34.022Z,100294.41
2023-03-21T02:04:01.414Z,100294.38
2023-03-21T02:06:27.881Z,100301.16
2023-03-21T02:08:54.363Z,100292.81
2023-03-21T02:11:20.792Z,100301.94
2023-03-21T02:13:50.188Z,100300.78
2023-03-21T02:16:20.962Z,100289.22
2023-03-21T02:18:48.333Z,100300.78
2023-03-21T02:21:14.827Z,100294.78
2023-03-21T02:23:41.272Z,100295.22
2023-03-21T02:26:08.622Z,100296.38
2023-03-21T02:28:36.010Z,100305.50
2023-03-21T02:33:57.035Z,100300.78
2023-03-21T02:36:23.524Z,100298.75
2023-03-21T02:38:50.027Z,100300.38
2023-03-21T02:41:19.065Z,100304.72
2023-03-21T02:43:47.201Z,100308.69
2023-03-21T02:48:59.416Z,100302.75
2023-03-21T02:51:25.899Z,100307.50
2023-03-21T02:54:16.200Z,100309.50
2023-03-21T02:56:39.622Z,100300.34
2023-03-21T02:59:06.988Z,100309.47
2023-03-21T03:04:19.296Z,100309.88
2023-03-21T03:06:46.537Z,100317.03
2023-03-21T03:09:13.813Z,100316.25
2023-03-21T03:11:42.130Z,100317.84
2023-03-21T03:14:32.226Z,100317.00
2023-03-21T03:19:49.676Z,100318.25
2023-03-21T03:22:17.674Z,100320.22
2023-03-21T03:24:45.193Z,100322.97
2023-03-21T03:27:12.440Z,100328.56
2023-03-21T03:29:39.724Z,100328.13
2023-03-21T03:35:01.761Z,100321.41
2023-03-21T03:37:29.042Z,100321.41
2023-03-21T03:39:56.328Z,100322.97
2023-03-21T03:42:28.474Z,100326.97
2023-03-21T03:44:55.387Z,100321.41
2023-03-21T03:50:16.802Z,100326.91
2023-03-21T03:52:55.588Z,100334.03
2023-03-21T03:55:22.952Z,100334.84
2023-03-21T03:57:50.205Z,100322.56
2023-03-21T04:00:18.527Z,100327.34
2023-03-21T04:02:46.974Z,100336.44
2023-03-21T04:05:14.307Z,100323.41
2023-03-21T04:07:41.605Z,100332.09
2023-03-21T04:10:09.890Z,100328.53
2023-03-21T04:12:36.377Z,100332.91
2023-03-21T04:15:10.250Z,100336.88
2023-03-21T04:20:34.172Z,100328.53
2023-03-21T04:23:06.032Z,100328.53
2023-03-21T04:25:34.770Z,100322.59
2023-03-21T04:28:03.288Z,100330.13
2023-03-21T04:30:32.474Z,100325.38
2023-03-21T04:33:00.766Z,100324.59
2023-03-21T04:35:28.001Z,100328.94
2023-03-21T04:37:54.457Z,100336.47
2023-03-21T04:40:20.905Z,100330.13
2023-03-21T04:42:49.484Z,100328.53
2023-03-21T04:45:16.745Z,100331.31
2023-03-21T04:50:29.058Z,100332.53
2023-03-21T04:52:58.240Z,100333.28
2023-03-21T04:55:24.709Z,100338.44
2023-03-21T04:57:52.979Z,100329.31
2023-03-21T05:00:21.282Z,100340.03
2023-03-21T05:05:44.745Z,100334.47
2023-03-21T05:08:11.995Z,100338.81
2023-03-21T05:10:38.401Z,100347.56
2023-03-21T05:13:04.819Z,100338.81
2023-03-21T05:15:31.267Z,100340.41
2023-03-21T05:20:54.269Z,100344.38
2023-03-21T05:23:23.499Z,100348.75
2023-03-21T05:25:52.690Z,100342.81
2023-03-21T05:28:20.993Z,100351.53
2023-03-21T05:30:50.186Z,100350.72
2023-03-21T05:36:03.421Z,100354.69
2023-03-21T05:38:30.677Z,100355.91
2023-03-21T05:40:57.909Z,100357.50
2023-03-21T05:43:27.080Z,100358.66
2023-03-21T05:45:54.359Z,100366.63
2023-03-21T05:51:07.788Z,100365.81
2023-03-21T05:53:34.166Z,100363.84
2023-03-21T05:56:00.592Z,100370.97
2023-03-21T05:58:27.017Z,100372.16
2023-03-21T06:00:53.436Z,100376.13
2023-03-21T06:06:16.503Z,100382.47
2023-03-21T06:08:44.802Z,100392.38
2023-03-21T06:11:12.122Z,100389.59
2023-03-21T06:13:39.544Z,100393.59
2023-03-21T06:16:06.052Z,100399.53
2023-03-21T06:21:28.235Z,100404.69
2023-03-21T06:23:54.733Z,100394.38
2023-03-21T06:26:21.203Z,100390.81
2023-03-21T06:28:48.666Z,100401.50
2023-03-21T06:31:15.234Z,100403.88
2023-03-21T06:36:26.697Z,100403.38
2023-03-21T06:38:53.175Z,100409.72
2023-03-21T06:41:20.628Z,100402.59
2023-03-21T06:43:48.034Z,100399.09
2023-03-21T06:46:15.453Z,100403.03
2023-03-21T06:51:36.269Z,100409.41
2023-03-21T06:54:02.733Z,100412.59
2023-03-21T06:56:29.170Z,100409.41
2023-03-21T06:58:55.953Z,100408.25
2023-03-21T07:01:23.254Z,100412.59
2023-03-21T07:06:35.322Z,100420.94
2023-03-21T07:09:01.769Z,100422.50
2023-03-21T07:11:28.307Z,100425.69
2023-03-21T07:13:55.659Z,100420.94
2023-03-21T07:16:23.176Z,100431.66
2023-03-21T07:21:44.102Z,100432.06
2023-03-21T07:24:10.802Z,100426.50
2023-03-21T07:26:37.547Z,100434.00
2023-03-21T07:29:06.948Z,100423.31
2023-03-21T07:31:36.169Z,100428.06
2023-03-21T07:36:46.509Z,100427.28
2023-03-21T07:39:14.753Z,100429.28
2023-03-21T07:41:41.184Z,100427.69
2023-03-21T07:44:08.431Z,100429.66
2023-03-21T07:46:35.697Z,100423.31
2023-03-21T07:51:47.758Z,100423.72
2023-03-21T07:54:14.174Z,100422.94
2023-03-21T07:56:40.528Z,100422.53
2023-03-21T07:59:06.976Z,100436.41
2023-03-21T08:01:34.209Z,100437.97
2023-03-21T08:06:54.701Z,100441.16
2023-03-21T08:09:21.224Z,100439.56
2023-03-21T08:11:47.648Z,100448.72
2023-03-21T08:14:13.965Z,100445.91
2023-03-21T08:16:40.376Z,100455.81
2023-03-21T08:21:50.480Z,100453.41
2023-03-21T08:24:16.817Z,100453.00
2023-03-21T08:26:43.250Z,100454.16
2023-03-21T08:29:09.612Z,100443.44
2023-03-21T08:31:35.952Z,100448.16
2023-03-21T08:36:56.965Z,100448.16
2023-03-21T08:39:23.400Z,100454.13
2023-03-21T08:41:49.760Z,100457.66
2023-03-21T08:44:16.566Z,100456.47
2023-03-21T08:46:43.175Z,100457.69
2023-03-21T08:51:53.268Z,100471.59
2023-03-21T08:54:19.596Z,100468.81
2023-03-21T08:56:46.041Z,100473.56
2023-03-21T08:59:12.427Z,100476.72
2023-03-21T09:01:38.820Z,100480.69
2023-03-21T09:07:00.220Z,100469.72
2023-03-21T09:09:29.413Z,100474.06
2023-03-21T09:11:56.822Z,100476.03
2023-03-21T09:14:28.429Z,100479.25
2023-03-21T09:16:55.278Z,100476.06
2023-03-21T09:22:17.460Z,100484.38
2023-03-21T09:24:43.806Z,100485.97
2023-03-21T09:27:10.142Z,100491.94
2023-03-21T09:29:36.579Z,100494.31
2023-03-21T09:32:02.908Z,100491.94
2023-03-21T09:37:13.373Z,100494.31
2023-03-21T09:39:39.858Z,100491.53
2023-03-21T09:42:07.091Z,100503.44
2023-03-21T09:44:34.342Z,100496.31
2023-03-21T09:47:00.854Z,100495.91
2023-03-21T09:49:27.235Z,100493.13
2023-03-21T09:51:53.632Z,100492.34
2023-03-21T09:54:20.133Z,100494.69
2023-03-21T09:56:46.492Z,100495.50
2023-03-21T09:59:12.838Z,100500.25
2023-03-21T10:01:39.186Z,100501.06
2023-03-21T10:04:05.632Z,100499.47
2023-03-21T10:06:32.106Z,100497.88
2023-03-21T10:08:58.489Z,100500.28
2023-03-21T10:11:24.819Z,100505.03
2023-03-21T10:13:51.165Z,100499.84
2023-03-21T10:16:18.425Z,100513.75
2023-03-21T10:18:44.811Z,100518.91
2023-03-21T10:21:11.150Z,100526.06
2023-03-21T10:23:37.557Z,100519.72
2023-03-21T10:26:03.875Z,100522.88
2023-03-21T10:28:34.555Z,100520.50
2023-03-21T10:31:05.755Z,100519.28
2023-03-21T10:33:32.125Z,100523.28
2023-03-21T10:35:58.480Z,100517.72
2023-03-21T10:38:24.846Z,100528.06
2023-03-21T10:40:51.192Z,100518.91
2023-03-21T10:43:18.415Z,100526.88
2023-03-21T10:45:44.827Z,100524.47
2023-03-21T10:48:11.371Z,100520.50
2023-03-21T10:50:37.870Z,100527.66
2023-03-21T10:53:04.290Z,100518.50
2023-03-21T10:55:30.628Z,100518.13
2023-03-21T10:57:57.109Z,100521.69
2023-03-21T11:00:23.454Z,100523.28
2023-03-21T11:02:49.936Z,100516.13
2023-03-21T11:05:16.718Z,100522.50
2023-03-21T11:10:29.087Z,100516.94
2023-03-21T11:12:55.601Z,100516.94
2023-03-21T11:15:21.937Z,100511.78
2023-03-21T11:17:48.271Z,100522.88
2023-03-21T11:20:15.485Z,100522.09
2023-03-21T11:25:25.597Z,100518.13
2023-03-21T11:27:51.939Z,100511.78
2023-03-21T11:30:18.321Z,100508.63
2023-03-21T11:32:44.685Z,100500.66
2023-03-21T11:35:11.978Z,100509.03
2023-03-21T11:40:22.117Z,100499.06
2023-03-21T11:42:48.442Z,100497.09
2023-03-21T11:45:14.825Z,100498.66
2023-03-21T11:47:41.245Z,100501.03
2023-03-21T11:50:07.650Z,100494.31
2023-03-21T11:55:28.140Z,100497.50
2023-03-21T11:57:54.868Z,100493.50
2023-03-21T12:00:22.633Z,100505.41
2023-03-21T12:02:49.200Z,100493.53
2023-03-21T12:05:15.682Z,100501.47
2023-03-21T12:10:37.142Z,100495.09
2023-03-21T12:13:03.619Z,100496.69
2023-03-21T12:15:30.230Z,100493.50
2023-03-21T12:17:57.842Z,100491.50
2023-03-21T12:20:24.298Z,100490.72
2023-03-21T12:25:35.816Z,100484.41
2023-03-21T12:28:03.700Z,100487.19
2023-03-21T12:30:30.979Z,100477.63
2023-03-21T12:32:57.435Z,100478.44
2023-03-21T12:35:23.884Z,100484.41
2023-03-21T12:40:46.116Z,100481.59
2023-03-21T12:43:12.505Z,100473.25
2023-03-21T12:45:46.650Z,100476.47
2023-03-21T12:48:13.949Z,100469.28
2023-03-21T12:50:40.335Z,100482.38
2023-03-21T12:56:00.756Z,100478.38
2023-03-21T12:58:27.095Z,100478.38
2023-03-21T13:00:53.493Z,100478.38
2023-03-21T13:03:25.072Z,100477.19
2023-03-21T13:05:56.726Z,100483.91
2023-03-21T13:11:17.075Z,100482.78
2023-03-21T13:13:43.608Z,100481.16
2023-03-21T13:16:10.018Z,100478.41
2023-03-21T13:18:36.383Z,100480.00
2023-03-21T13:21:02.741Z,100477.59
2023-03-21T13:26:13.756Z,100484.75
2023-03-21T13:28:40.073Z,100479.59
2023-03-21T13:31:06.425Z,100483.19
2023-03-21T13:33:32.774Z,100477.22
2023-03-21T13:35:59.165Z,100476.41
2023-03-21T13:41:10.253Z,100480.00
2023-03-21T13:43:36.600Z,100468.88
2023-03-21T13:46:03.023Z,100474.03
2023-03-21T13:48:29.483Z,100479.16
2023-03-21T13:50:55.895Z,100470.44
2023-03-21T13:56:15.980Z,100465.31
2023-03-21T13:58:42.474Z,100465.31
2023-03-21T14:01:09.027Z,100466.13
2023-03-21T14:03:36.307Z,100467.34
2023-03-21T14:06:02.738Z,100461.75
2023-03-21T14:11:23.392Z,100459.38
2023-03-21T14:13:51.889Z,100461.34
2023-03-21T14:16:19.289Z,100465.72
2023-03-21T14:18:54.169Z,100467.31
2023-03-21T14:21:24.242Z,100461.75
2023-03-21T14:26:46.868Z,100470.50
2023-03-21T14:29:25.638Z,100478.84
2023-03-21T14:31:52.835Z,100460.56
2023-03-21T14:34:19.241Z,100462.16
2023-03-21T14:36:57.706Z,100466.53
2023-03-21T14:42:19.782Z,100464.13
2023-03-21T14:44:58.623Z,100460.19
2023-03-21T14:47:25.953Z,100460.56
2023-03-21T14:49:52.347Z,100451.84
2023-03-21T14:52:21.467Z,100460.56
2023-03-21T14:57:41.647Z,100455.81
2023-03-21T15:00:09.035Z,100457.41
2023-03-21T15:02:35.447Z,100458.97
2023-03-21T15:05:01.902Z,100460.19
2023-03-21T15:07:28.259Z,100455.81
2023-03-21T15:12:38.350Z,100456.22
2023-03-21T15:15:04.716Z,100454.63
2023-03-21T15:17:31.070Z,100459.41
2023-03-21T15:19:57.413Z,100455.81
2023-03-21T15:22:23.785Z,100448.69
2023-03-21T15:27:34.130Z,100453.03
2023-03-21T15:30:00.483Z,100459.38
2023-03-21T15:32:27.975Z,100447.88
2023-03-21T15:34:54.314Z,100451.03
2023-03-21T15:37:20.642Z,100450.66
2023-03-21T15:42:30.781Z,100447.88
2023-03-21T15:44:57.128Z,100449.88
2023-03-21T15:47:23.534Z,100452.66
2023-03-21T15:49:49.884Z,100447.09
2023-03-21T15:52:16.260Z,100443.13
2023-03-21T15:57:36.386Z,100446.72
2023-03-21T16:00:02.765Z,100436.38
2023-03-21T16:02:29.174Z,100441.16
2023-03-21T16:04:55.566Z,100441.56
2023-03-21T16:07:21.899Z,100442.34
2023-03-21T16:12:42.147Z,100447.50
2023-03-21T16:15:08.504Z,100446.72
2023-03-21T16:17:35.020Z,100443.53
2023-03-21T16:20:01.366Z,100441.94
2023-03-21T16:22:30.439Z,100445.13
2023-03-21T16:24:57.097Z,100441.16
2023-03-21T16:27:23.725Z,100441.56
2023-03-21T16:29:50.088Z,100446.72
2023-03-21T16:32:16.436Z,100434.00
2023-03-21T16:34:42.814Z,100442.34
2023-03-21T16:37:10.094Z,100440.75
2023-03-21T16:39:36.459Z,100448.69
2023-03-21T16:42:02.836Z,100442.34
2023-03-21T16:44:29.171Z,100444.75
2023-03-21T16:46:55.552Z,100443.13
2023-03-21T16:49:21.906Z,100441.97
2023-03-21T16:51:49.144Z,100449.09
2023-03-21T16:54:16.409Z,100445.53
2023-03-21T16:56:42.798Z,100453.47
2023-03-21T16:59:10.188Z,100451.88
2023-03-21T17:01:36.666Z,100454.25
2023-03-21T17:04:03.064Z,100459.81
2023-03-21T17:06:29.472Z,100465.75
2023-03-21T17:08:55.892Z,100472.50
2023-03-21T17:11:25.046Z,100472.50
2023-03-21T17:13:51.497Z,100476.84
2023-03-21T17:16:18.005Z,100471.31
2023-03-21T17:18:44.446Z,100480.84
2023-03-21T17:21:11.886Z,100478.06
2023-03-21T17:23:40.139Z,100480.84
2023-03-21T17:26:09.308Z,100489.16
2023-03-21T17:28:35.732Z,100487.19
2023-03-21T17:31:04.067Z,100490.34
2023-03-21T17:33:32.378Z,100493.91
2023-03-21T17:35:58.841Z,100489.16
2023-03-21T17:38:28.045Z,100491.13
2023-03-21T17:40:54.468Z,100493.91
2023-03-21T17:46:16.664Z,100496.69
2023-03-21T17:48:43.166Z,100502.63
2023-03-21T17:51:09.580Z,100499.06
2023-03-21T17:53:36.806Z,100506.59
2023-03-21T17:56:03.300Z,100505.41
2023-03-21T18:01:16.320Z,100503.41
2023-03-21T18:03:42.854Z,100504.22
2023-03-21T18:06:09.461Z,100517.28
2023-03-21T18:08:35.890Z,100523.28
2023-03-21T18:11:05.098Z,100515.72
2023-03-21T18:16:31.196Z,100526.03
2023-03-21T18:18:57.678Z,100528.81
2023-03-21T18:21:31.340Z,100533.56
2023-03-21T18:23:59.300Z,100534.78
2023-03-21T18:26:26.031Z,100533.94
2023-03-21T18:32:04.428Z,100533.16
2023-03-21T18:34:34.055Z,100532.75
2023-03-21T18:37:03.777Z,100533.16
2023-03-21T18:39:31.508Z,100531.97
2023-03-21T18:41:59.813Z,100538.31
2023-03-21T18:47:20.672Z,100531.53
2023-03-21T18:50:13.790Z,100537.53
2023-03-21T18:52:33.703Z,100533.53
2023-03-21T18:55:00.335Z,100538.31
2023-03-21T18:57:35.724Z,100530.00
2023-03-21T19:03:19.151Z,100534.81
2023-03-21T19:05:55.143Z,100526.88
2023-03-21T19:08:21.552Z,100523.28
2023-03-21T19:10:47.936Z,100521.69
2023-03-21T19:13:14.442Z,100528.44
2023-03-21T19:15:41.495Z,100524.88
2023-03-21T19:18:41.654Z,100518.91
2023-03-21T19:20:54.471Z,100523.69
2023-03-21T19:23:22.043Z,100522.91
2023-03-21T19:25:48.488Z,100520.50
2023-03-21T19:28:14.971Z,100524.88
2023-03-21T19:30:49.650Z,100526.47
2023-03-21T19:33:17.115Z,100522.91
2023-03-21T19:35:43.559Z,100528.06
2023-03-21T19:38:10.985Z,100532.41
2023-03-21T19:40:38.654Z,100527.66
2023-03-21T19:43:29.833Z,100530.84
2023-03-21T19:48:47.098Z,100528.44
2023-03-21T19:51:27.708Z,100532.41
2023-03-21T19:53:55.907Z,100527.63
2023-03-21T19:56:26.823Z,100530.44
2023-03-21T19:58:57.469Z,100523.28
2023-03-21T20:01:26.019Z,100536.78
2023-03-21T20:03:52.618Z,100542.75
2023-03-21T20:06:19.182Z,100544.75
2023-03-21T20:09:27.164Z,100541.56
2023-03-21T20:11:38.449Z,100535.19
2023-03-21T20:14:04.888Z,100535.19
2023-03-21T20:16:34.705Z,100536.38
2023-03-21T20:19:03.924Z,100538.38
2023-03-21T20:21:40.114Z,100542.72
2023-03-21T20:24:08.634Z,100541.94
2023-03-21T20:26:35.983Z,100549.50
2023-03-21T20:29:37.191Z,100550.66
2023-03-21T20:34:36.873Z,100557.00
2023-03-21T20:37:03.625Z,100559.81
2023-03-21T20:39:32.896Z,100550.28
2023-03-21T20:41:59.703Z,100550.69
2023-03-21T20:47:12.725Z,100547.91
2023-03-21T20:49:39.365Z,100542.72
2023-03-21T20:54:53.664Z,100543.50
2023-03-21T20:57:21.038Z,100540.69
2023-03-21T20:59:48.411Z,100536.31
2023-03-21T21:02:14.845Z,100534.69
2023-03-21T21:05:08.160Z,100536.72
2023-03-21T21:07:29.519Z,100533.94
2023-03-21T21:09:56.244Z,100531.56
2023-03-21T21:12:22.743Z,100535.94
2023-03-21T21:14:50.075Z,100529.94
2023-03-21T21:17:31.206Z,100531.97
2023-03-21T21:20:03.008Z,100529.56
2023-03-21T21:22:30.478Z,100526.78
2023-03-21T21:24:57.182Z,100523.19
2023-03-21T21:27:24.478Z,100533.16
2023-03-21T21:29:51.795Z,100527.59
2023-03-21T21:35:03.377Z,100533.09
2023-03-21T21:37:30.626Z,100531.88
2023-03-21T21:39:57.864Z,100532.34
2023-03-21T21:42:26.205Z,100526.41
2023-03-21T21:44:53.438Z,100524.03
2023-03-21T21:50:15.005Z,100523.22
2023-03-21T21:52:42.356Z,100521.22
2023-03-21T21:55:09.601Z,100528.78
2023-03-21T21:57:36.893Z,100525.59
2023-03-21T22:00:03.396Z,100528.00
2023-03-21T22:05:16.456Z,100526.41
2023-03-21T22:07:44.723Z,100529.97
2023-03-21T22:10:13.035Z,100535.94
2023-03-21T22:12:44.120Z,100536.34
2023-03-21T22:15:11.386Z,100533.56
2023-03-21T22:20:32.451Z,100537.56
2023-03-21T22:22:59.726Z,100544.28
2023-03-21T22:25:28.054Z,100542.28
2023-03-21T22:27:54.472Z,100542.28
2023-03-21T22:30:21.800Z,100535.56
2023-03-21T22:35:33.129Z,100535.16
2023-03-21T22:38:00.456Z,100534.34
2023-03-21T22:40:26.891Z,100525.22
2023-03-21T22:42:53.333Z,100523.25
2023-03-21T22:45:19.799Z,100525.22
2023-03-21T22:50:42.002Z,100530.41
2023-03-21T22:53:09.360Z,100531.59
2023-03-21T22:55:36.612Z,100528.38
2023-03-21T22:58:03.034Z,100527.25
2023-03-21T23:00:29.477Z,100531.59
2023-03-21T23:05:50.036Z,100526.41
2023-03-21T23:08:17.375Z,100524.44
2023-03-21T23:10:44.720Z,100525.63
2023-03-21T23:13:11.217Z,100521.28
2023-03-21T23:15:37.700Z,100520.06
2023-03-21T23:20:48.321Z,100522.47
2023-03-21T23:23:15.710Z,100524.47
2023-03-21T23:25:42.676Z,100533.97
2023-03-21T23:28:10.100Z,100534.75
2023-03-21T23:30:36.743Z,100526.84
2023-03-21T23:35:58.622Z,100530.03
2023-03-21T23:38:25.170Z,100520.88
2023-03-21T23:40:52.571Z,100527.25
2023-03-21T23:43:19.029Z,100516.53
2023-03-21T23:45:45.487Z,100522.84
2023-03-21T23:50:55.722Z,100510.94
2023-03-21T23:53:22.157Z,100503.38
2023-03-21T23:55:49.549Z,100507.38
2023-03-21T23:58:16.953Z,100505.78
